createdAt,value
2022-11-27T00:03:00.140Z,40.50
2022-11-27T00:06:02.481Z,40.70
2022-11-27T00:09:08.746Z,41.65
2022-11-27T00:12:10.915Z,41.58
2022-11-27T00:15:17.087Z,41.72
2022-11-27T00:18:19.559Z,42.93
2022-11-27T00:21:27.054Z,40.88
2022-11-27T00:24:29.284Z,42.72
2022-11-27T00:27:31.571Z,43.33
2022-11-27T00:30:33.685Z,41.28
2022-11-27T00:33:37.498Z,41.30
2022-11-27T00:36:42.914Z,42.60
2022-11-27T00:39:47.577Z,43.80
2022-11-27T00:42:49.708Z,43.17
2022-11-27T00:45:51.789Z,42.13
2022-11-27T00:48:55.105Z,41.57
2022-11-27T00:51:57.410Z,42.33
2022-11-27T00:54:59.529Z,41.38
2022-11-27T00:58:01.681Z,40.75
2022-11-27T01:01:06.083Z,39.70
2022-11-27T01:04:13.388Z,36.33
2022-11-27T01:07:15.616Z,37.05
2022-11-27T01:10:17.847Z,36.65
2022-11-27T01:13:21.421Z,38.03
2022-11-27T01:16:25.719Z,38.58
2022-11-27T01:19:27.953Z,38.17
2022-11-27T01:22:30.082Z,36.90
2022-11-27T01:25:32.261Z,35.67
2022-11-27T01:28:34.889Z,38.55
2022-11-27T01:31:37.430Z,36.65
2022-11-27T01:34:40.249Z,38.53
2022-11-27T01:37:42.651Z,38.47
2022-11-27T01:40:44.768Z,42.40
2022-11-27T01:43:51.642Z,43.85
2022-11-27T01:46:56.644Z,42.88
2022-11-27T01:50:07.916Z,41.33
2022-11-27T01:53:16.579Z,41.58
2022-11-27T01:56:18.960Z,41.33
2022-11-27T01:59:21.781Z,43.22
2022-11-27T02:02:24.103Z,41.38
2022-11-27T02:05:28.645Z,40.33
2022-11-27T02:08:31.019Z,41.53
2022-11-27T02:11:57.945Z,41.72
2022-11-27T02:15:11.288Z,40.42
2022-11-27T02:18:22.527Z,41.65
2022-11-27T02:21:47.120Z,39.97
2022-11-27T02:24:57.824Z,41.88
2022-11-27T02:28:28.559Z,39.75
2022-11-27T02:31:53.609Z,39.47
2022-11-27T02:35:04.415Z,38.38
2022-11-27T02:38:10.963Z,40.67
2022-11-27T02:41:17.527Z,39.72
2022-11-27T02:44:20.884Z,43.67
2022-11-27T02:47:23.198Z,47.33
2022-11-27T02:50:26.784Z,49.45
2022-11-27T02:53:38.756Z,45.80
2022-11-27T02:56:42.145Z,45.30
2022-11-27T02:59:44.889Z,45.50
2022-11-27T03:02:53.338Z,44.55
2022-11-27T03:05:57.892Z,38.42
2022-11-27T03:09:08.976Z,36.30
2022-11-27T03:12:12.200Z,38.00
2022-11-27T03:15:14.627Z,35.75
2022-11-27T03:18:41.156Z,37.13
2022-11-27T03:21:53.506Z,37.92
2022-11-27T03:24:55.739Z,35.80
2022-11-27T03:28:08.872Z,36.42
2022-11-27T03:31:11.873Z,36.05
2022-11-27T03:34:14.142Z,37.08
2022-11-27T03:37:16.336Z,39.25
2022-11-27T03:40:18.820Z,38.87
2022-11-27T03:43:27.837Z,38.00
2022-11-27T03:46:43.034Z,39.03
2022-11-27T03:49:45.173Z,38.97
2022-11-27T03:53:10.688Z,40.20
2022-11-27T03:56:20.147Z,37.67
2022-11-27T03:59:36.100Z,38.83
2022-11-27T04:02:45.395Z,39.25
2022-11-27T04:05:47.534Z,39.45
2022-11-27T04:08:49.776Z,41.13
2022-11-27T04:11:51.891Z,39.47
2022-11-27T04:14:54.067Z,38.80
2022-11-27T04:17:56.153Z,39.22
2022-11-27T04:20:58.351Z,38.00
2022-11-27T04:24:00.524Z,38.00
2022-11-27T04:27:02.637Z,38.17
2022-11-27T04:30:05.400Z,36.05
2022-11-27T04:33:07.536Z,37.13
2022-11-27T04:36:09.762Z,37.00
2022-11-27T04:39:13.374Z,37.22
2022-11-27T04:42:15.526Z,37.50
2022-11-27T04:45:17.842Z,36.08
2022-11-27T04:48:20.025Z,37.28
2022-11-27T04:51:22.194Z,35.47
2022-11-27T04:54:24.330Z,35.13
2022-11-27T04:57:26.474Z,33.63
2022-11-27T05:00:28.654Z,33.38
2022-11-27T05:03:30.807Z,34.70
2022-11-27T05:06:32.905Z,33.55
2022-11-27T05:09:35.080Z,32.00
2022-11-27T05:12:37.283Z,31.07
2022-11-27T05:15:39.391Z,30.27
2022-11-27T05:18:41.705Z,31.60
2022-11-27T05:21:44.245Z,30.13
2022-11-27T05:24:46.353Z,30.20
2022-11-27T05:27:48.923Z,28.20
2022-11-27T05:30:51.258Z,29.75
2022-11-27T05:33:53.381Z,30.92
2022-11-27T05:36:55.636Z,30.58
2022-11-27T05:39:57.763Z,30.95
2022-11-27T05:42:59.957Z,29.77
2022-11-27T05:46:08.606Z,27.98
2022-11-27T05:49:15.170Z,28.80
2022-11-27T05:52:17.381Z,29.13
2022-11-27T05:55:19.648Z,29.70
2022-11-27T05:58:21.837Z,28.77
2022-11-27T06:01:24.027Z,30.98
2022-11-27T06:04:26.174Z,31.33
2022-11-27T06:07:28.342Z,31.15
2022-11-27T06:10:30.527Z,29.70
2022-11-27T06:13:32.675Z,30.10
2022-11-27T06:16:34.978Z,29.20
2022-11-27T06:19:37.091Z,31.17
2022-11-27T06:22:39.183Z,31.70
2022-11-27T06:25:41.341Z,33.63
2022-11-27T06:28:43.828Z,32.17
2022-11-27T06:31:46.032Z,31.33
2022-11-27T06:34:48.200Z,31.25
2022-11-27T06:37:50.334Z,30.83
2022-11-27T06:40:52.479Z,30.73
2022-11-27T06:43:55.589Z,30.47
2022-11-27T06:46:57.699Z,31.05
2022-11-27T06:49:59.816Z,30.40
2022-11-27T06:53:01.956Z,31.38
2022-11-27T06:56:05.519Z,30.98
2022-11-27T06:59:07.649Z,35.73
2022-11-27T07:02:14.240Z,32.22
2022-11-27T07:05:16.551Z,32.28
2022-11-27T07:08:18.765Z,32.85
2022-11-27T07:11:23.692Z,33.20
2022-11-27T07:14:25.849Z,31.63
2022-11-27T07:17:27.963Z,28.88
2022-11-27T07:20:30.117Z,29.30
2022-11-27T07:23:32.746Z,30.92
2022-11-27T07:26:35.024Z,30.77
2022-11-27T07:29:37.121Z,31.97
2022-11-27T07:32:39.457Z,29.45
2022-11-27T07:35:43.967Z,28.17
2022-11-27T07:38:46.843Z,34.03
2022-11-27T07:41:48.954Z,25.77
2022-11-27T07:44:51.202Z,27.57
2022-11-27T07:47:53.309Z,26.45
2022-11-27T07:50:55.457Z,31.05
2022-11-27T07:53:57.644Z,27.77
2022-11-27T07:56:59.895Z,29.40
2022-11-27T08:00:02.017Z,25.53
2022-11-27T08:03:06.542Z,23.90
2022-11-27T08:06:18.196Z,23.42
2022-11-27T08:09:20.414Z,24.00
2022-11-27T08:12:23.438Z,22.20
2022-11-27T08:15:25.566Z,20.83
2022-11-27T08:18:27.807Z,20.63
2022-11-27T08:21:30.093Z,18.85
2022-11-27T08:24:32.278Z,19.63
2022-11-27T08:27:34.549Z,19.92
2022-11-27T08:30:36.668Z,19.53
2022-11-27T08:33:38.894Z,19.30
2022-11-27T08:36:41.065Z,19.13
2022-11-27T08:39:43.221Z,18.23
2022-11-27T08:42:45.448Z,17.52
2022-11-27T08:45:47.586Z,18.57
2022-11-27T08:48:49.770Z,18.23
2022-11-27T08:51:52.093Z,17.20
2022-11-27T08:54:57.537Z,18.23
2022-11-27T08:58:00.169Z,16.50
2022-11-27T09:01:14.660Z,16.47
2022-11-27T09:04:16.987Z,16.40
2022-11-27T09:07:19.230Z,15.70
2022-11-27T09:10:22.400Z,17.33
2022-11-27T09:13:24.550Z,17.63
2022-11-27T09:16:26.843Z,17.47
2022-11-27T09:19:29.036Z,18.23
2022-11-27T09:22:31.178Z,19.58
2022-11-27T09:25:33.361Z,17.83
2022-11-27T09:28:36.321Z,18.40
2022-11-27T09:31:38.500Z,18.80
2022-11-27T09:34:41.105Z,18.90
2022-11-27T09:37:43.395Z,19.58
2022-11-27T09:41:02.867Z,20.48
2022-11-27T09:44:28.854Z,19.38
2022-11-27T09:47:49.188Z,20.83
2022-11-27T09:50:53.401Z,19.55
2022-11-27T09:54:00.860Z,20.17
2022-11-27T09:57:03.326Z,19.73
2022-11-27T10:00:17.896Z,20.20
2022-11-27T10:03:27.241Z,18.03
2022-11-27T10:06:59.549Z,18.25
2022-11-27T10:10:23.524Z,19.25
2022-11-27T10:13:47.963Z,21.30
2022-11-27T10:17:10.886Z,19.77
2022-11-27T10:20:28.768Z,20.67
2022-11-27T10:23:41.869Z,18.80
2022-11-27T10:26:49.387Z,19.13
2022-11-27T10:29:56.874Z,17.45
2022-11-27T10:33:00.817Z,18.83
2022-11-27T10:36:03.144Z,17.83
2022-11-27T10:39:07.552Z,20.52
2022-11-27T10:42:14.005Z,20.27
2022-11-27T10:45:22.768Z,19.65
2022-11-27T10:48:25.125Z,19.20
2022-11-27T10:51:34.480Z,19.60
2022-11-27T10:54:38.467Z,19.08
2022-11-27T10:57:49.982Z,19.80
2022-11-27T11:01:07.072Z,20.67
2022-11-27T11:04:35.839Z,19.73
2022-11-27T11:07:35.603Z,19.43
2022-11-27T11:10:44.781Z,19.85
2022-11-27T11:13:47.759Z,19.80
2022-11-27T11:16:51.621Z,23.55
2022-11-27T11:19:53.869Z,20.27
2022-11-27T11:22:56.041Z,18.50
2022-11-27T11:26:02.670Z,19.38
2022-11-27T11:29:14.751Z,18.98
2022-11-27T11:32:20.870Z,18.75
2022-11-27T11:35:29.459Z,18.08
2022-11-27T11:38:32.694Z,16.83
2022-11-27T11:41:45.935Z,17.15
2022-11-27T11:45:10.955Z,17.42
2022-11-27T11:48:25.131Z,15.77
2022-11-27T11:51:37.195Z,15.82
2022-11-27T11:54:58.544Z,17.93
2022-11-27T11:58:16.688Z,18.58
2022-11-27T12:01:43.655Z,15.07
2022-11-27T12:08:43.872Z,14.90
2022-11-27T12:12:05.349Z,15.10
2022-11-27T12:15:16.584Z,13.48
2022-11-27T12:18:21.486Z,12.98
2022-11-27T12:21:45.208Z,12.48
2022-11-27T12:25:22.457Z,13.20
2022-11-27T12:28:32.253Z,11.30
2022-11-27T12:32:07.094Z,11.60
2022-11-27T12:35:39.189Z,11.27
2022-11-27T12:38:58.225Z,11.73
2022-11-27T12:42:21.915Z,12.07
2022-11-27T12:45:46.792Z,11.87
2022-11-27T12:49:06.188Z,11.65
2022-11-27T12:52:24.930Z,10.85
2022-11-27T12:55:29.706Z,11.00
2022-11-27T12:58:35.778Z,11.13
2022-11-27T13:02:10.203Z,10.93
2022-11-27T13:05:18.235Z,11.65
2022-11-27T13:08:24.483Z,11.38
2022-11-27T13:11:30.656Z,11.38
2022-11-27T13:14:36.109Z,10.77
2022-11-27T13:17:41.735Z,11.03
2022-11-27T13:20:47.124Z,11.23
2022-11-27T13:23:51.906Z,10.48
2022-11-27T13:27:09.729Z,10.30
2022-11-27T13:30:20.615Z,11.73
2022-11-27T13:33:40.336Z,12.37
2022-11-27T13:36:47.330Z,10.35
2022-11-27T13:39:50.282Z,9.35
2022-11-27T13:42:57.700Z,9.82
2022-11-27T13:46:18.408Z,9.60
2022-11-27T13:49:32.174Z,10.03
2022-11-27T13:52:34.554Z,9.48
2022-11-27T13:55:39.517Z,9.88
2022-11-27T13:58:43.172Z,9.23
2022-11-27T14:01:59.996Z,9.77
2022-11-27T14:05:02.994Z,9.97
2022-11-27T14:08:20.056Z,9.90
2022-11-27T14:11:34.112Z,10.93
2022-11-27T14:14:36.510Z,10.75
2022-11-27T14:17:40.846Z,9.88
2022-11-27T14:21:03.570Z,9.13
2022-11-27T14:24:33.389Z,10.18
2022-11-27T14:27:47.813Z,10.82
2022-11-27T14:30:52.702Z,12.07
2022-11-27T14:37:25.903Z,12.30
2022-11-27T14:40:28.367Z,12.07
2022-11-27T14:43:31.804Z,11.35
2022-11-27T14:46:35.918Z,11.32
2022-11-27T14:49:39.450Z,11.88
2022-11-27T14:52:44.012Z,11.23
2022-11-27T14:55:49.319Z,13.07
2022-11-27T14:58:54.055Z,13.80
2022-11-27T15:02:03.839Z,13.95
2022-11-27T15:05:06.893Z,14.18
2022-11-27T15:08:10.255Z,12.87
2022-11-27T15:11:29.988Z,13.73
2022-11-27T15:14:38.097Z,13.55
2022-11-27T15:17:40.787Z,14.88
2022-11-27T15:20:45.164Z,13.40
2022-11-27T15:23:50.659Z,12.13
2022-11-27T15:26:52.776Z,11.93
2022-11-27T15:29:55.200Z,11.88
2022-11-27T15:32:58.629Z,11.45
2022-11-27T15:36:21.228Z,10.13
2022-11-27T15:39:24.780Z,9.97
2022-11-27T15:42:27.984Z,10.65
2022-11-27T15:45:32.041Z,10.77
2022-11-27T15:48:34.267Z,10.57
2022-11-27T15:51:36.875Z,10.30
2022-11-27T15:54:39.634Z,9.87
2022-11-27T15:57:42.866Z,10.35
2022-11-27T16:00:45.152Z,10.55
2022-11-27T16:03:47.817Z,11.98
2022-11-27T16:06:52.104Z,11.77
2022-11-27T16:09:57.160Z,10.50
2022-11-27T16:13:00.545Z,10.15
2022-11-27T16:16:08.630Z,11.00
2022-11-27T16:19:12.682Z,11.38
2022-11-27T16:22:16.174Z,10.35
2022-11-27T16:25:20.087Z,10.17
2022-11-27T16:28:23.588Z,9.65
2022-11-27T16:31:27.701Z,10.30
2022-11-27T16:34:30.901Z,11.35
2022-11-27T16:37:34.513Z,11.80
2022-11-27T16:40:39.549Z,10.97
2022-11-27T16:43:46.022Z,10.23
2022-11-27T16:46:49.007Z,10.77
2022-11-27T16:49:51.900Z,10.40
2022-11-27T16:53:05.232Z,11.40
2022-11-27T16:56:11.298Z,10.17
2022-11-27T16:59:15.627Z,9.60
2022-11-27T17:02:19.367Z,10.15
2022-11-27T17:05:22.726Z,15.50
2022-11-27T17:08:26.126Z,17.75
2022-11-27T17:11:33.929Z,12.00
2022-11-27T17:14:37.743Z,11.43
2022-11-27T17:17:43.264Z,9.98
2022-11-27T17:20:46.281Z,10.02
2022-11-27T17:23:49.466Z,9.70
2022-11-27T17:26:54.569Z,10.00
2022-11-27T17:30:06.213Z,11.85
2022-11-27T17:33:09.712Z,10.65
2022-11-27T17:36:13.212Z,9.40
2022-11-27T17:39:16.822Z,10.48
2022-11-27T17:42:22.795Z,9.43
2022-11-27T17:45:26.718Z,8.93
2022-11-27T17:48:29.680Z,9.63
2022-11-27T17:51:35.439Z,9.07
2022-11-27T17:54:39.048Z,9.05
2022-11-27T17:57:41.372Z,9.30
2022-11-27T18:00:45.392Z,11.23
2022-11-27T18:03:48.493Z,10.63
2022-11-27T18:06:51.255Z,10.85
2022-11-27T18:09:55.064Z,10.45
2022-11-27T18:12:57.572Z,10.77
2022-11-27T18:16:08.969Z,10.00
2022-11-27T18:19:12.251Z,11.15
2022-11-27T18:22:14.915Z,10.20
2022-11-27T18:25:19.830Z,10.40
2022-11-27T18:28:22.936Z,10.83
2022-11-27T18:31:26.815Z,9.63
2022-11-27T18:34:30.147Z,11.23
2022-11-27T18:37:38.260Z,10.13
2022-11-27T18:40:41.661Z,11.90
2022-11-27T18:43:46.276Z,9.90
2022-11-27T18:46:48.912Z,9.43
2022-11-27T18:49:51.563Z,9.02
2022-11-27T18:52:54.789Z,9.73
2022-11-27T18:56:07.814Z,11.35
2022-11-27T18:59:11.303Z,10.77
2022-11-27T19:02:14.654Z,11.75
2022-11-27T19:05:17.392Z,11.52
2022-11-27T19:08:20.351Z,12.90
2022-11-27T19:11:24.246Z,12.45
2022-11-27T19:14:27.068Z,12.83
2022-11-27T19:17:32.457Z,13.02
2022-11-27T19:20:37.552Z,12.40
2022-11-27T19:23:41.991Z,12.10
2022-11-27T19:26:45.085Z,12.95
2022-11-27T19:29:49.449Z,12.33
2022-11-27T19:32:52.978Z,13.48
2022-11-27T19:36:07.491Z,12.90
2022-11-27T19:39:14.291Z,12.45
2022-11-27T19:42:16.940Z,13.82
2022-11-27T19:45:21.849Z,12.87
2022-11-27T19:48:24.329Z,14.40
2022-11-27T19:51:27.995Z,13.88
2022-11-27T19:54:30.855Z,13.85
2022-11-27T19:57:33.720Z,14.13
2022-11-27T20:00:36.156Z,15.30
2022-11-27T20:03:40.093Z,14.52
2022-11-27T20:06:42.443Z,15.43
2022-11-27T20:09:44.862Z,15.30
2022-11-27T20:12:47.808Z,16.30
2022-11-27T20:15:50.572Z,14.60
2022-11-27T20:18:53.755Z,14.02
2022-11-27T20:21:56.492Z,14.73
2022-11-27T20:25:18.411Z,14.07
2022-11-27T20:28:22.331Z,14.38
2022-11-27T20:31:28.603Z,14.67
2022-11-27T20:34:31.144Z,14.07
2022-11-27T20:37:34.083Z,15.40
2022-11-27T20:40:39.283Z,14.73
2022-11-27T20:43:43.224Z,15.38
2022-11-27T20:46:49.091Z,15.03
2022-11-27T20:49:52.503Z,13.95
2022-11-27T20:52:54.792Z,15.60
2022-11-27T20:56:05.312Z,14.23
2022-11-27T20:59:08.122Z,13.82
2022-11-27T21:02:13.494Z,15.73
2022-11-27T21:05:16.185Z,14.65
2022-11-27T21:08:19.510Z,15.35
2022-11-27T21:11:27.453Z,14.88
2022-11-27T21:14:29.795Z,15.30
2022-11-27T21:17:32.117Z,15.37
2022-11-27T21:20:34.300Z,14.88
2022-11-27T21:23:37.950Z,15.65
2022-11-27T21:26:41.780Z,15.23
2022-11-27T21:29:44.242Z,15.10
2022-11-27T21:32:46.580Z,14.90
2022-11-27T21:35:55.530Z,15.73
2022-11-27T21:39:01.331Z,15.43
2022-11-27T21:42:13.191Z,16.10
2022-11-27T21:45:15.889Z,16.48
2022-11-27T21:48:18.475Z,16.23
2022-11-27T21:51:23.020Z,16.30
2022-11-27T21:54:26.160Z,15.15
2022-11-27T21:57:28.291Z,14.75
2022-11-27T22:00:30.452Z,16.83
2022-11-27T22:03:33.556Z,17.27
2022-11-27T22:06:38.618Z,18.98
2022-11-27T22:09:40.779Z,17.90
2022-11-27T22:12:42.983Z,17.08
2022-11-27T22:15:45.217Z,17.73
2022-11-27T22:18:48.983Z,17.70
2022-11-27T22:21:51.129Z,16.35
2022-11-27T22:24:53.808Z,16.67
2022-11-27T22:27:56.096Z,16.27
2022-11-27T22:30:58.301Z,16.50
2022-11-27T22:34:01.156Z,17.83
2022-11-27T22:37:05.947Z,16.83
2022-11-27T22:40:08.457Z,16.65
2022-11-27T22:43:10.673Z,17.77
2022-11-27T22:46:18.100Z,16.73
2022-11-27T22:49:20.502Z,17.03
2022-11-27T22:52:24.370Z,15.85
2022-11-27T22:55:27.650Z,16.90
2022-11-27T22:58:30.429Z,17.13
2022-11-27T23:01:33.062Z,18.05
2022-11-27T23:04:37.709Z,17.60
2022-11-27T23:07:39.871Z,17.75
2022-11-27T23:10:42.178Z,17.60
2022-11-27T23:13:49.445Z,17.95
2022-11-27T23:16:52.822Z,19.65
2022-11-27T23:19:55.173Z,17.73
2022-11-27T23:22:57.433Z,18.00
2022-11-27T23:26:07.504Z,18.63
2022-11-27T23:29:09.815Z,16.40
2022-11-27T23:32:12.048Z,17.05
2022-11-27T23:35:14.572Z,16.47
2022-11-27T23:38:16.685Z,17.70
2022-11-27T23:41:25.120Z,19.48
2022-11-27T23:44:27.284Z,19.23
2022-11-27T23:47:30.418Z,17.65
2022-11-27T23:50:32.638Z,17.43
2022-11-27T23:53:35.523Z,18.80
2022-11-27T23:56:38.402Z,18.80
2022-11-27T23:59:40.489Z,18.50
